sensor_id;sensor_type;location;lat;lon;timestamp;pressure;altitude;pressure_sealevel;temperature;humidity
7058;BME280;3570;43.080;25.628;2023-09-12T00:01:32;-20000.50;;;18.83;85.32
7058;BME280;3570;43.080;25.628;2023-09-12T00:04:16;-19988.88;;;18.42;85.01
7058;BME280;3570;43.080;25.628;2023-09-12T00:07:00;-19991.63;;;18.52;86.61
7058;BME280;3570;43.080;25.628;2023-09-12T00:09:44;-19985.09;;;18.29;86.26
7058;BME280;3570;43.080;25.628;2023-09-12T00:12:28;-19986.25;;;18.33;86.21
7058;BME280;3570;43.080;25.628;2023-09-12T00:15:12;-19990.47;;;18.48;87.06
7058;BME280;3570;43.080;25.628;2023-09-12T00:17:56;-19991.63;;;18.52;87.42
7058;BME280;3570;43.080;25.628;2023-09-12T00:20:40;-19984.38;;;18.27;88.24
7058;BME280;3570;43.080;25.628;2023-09-12T00:23:24;-19989.31;;;18.44;88.23
7058;BME280;3570;43.080;25.628;2023-09-12T00:26:08;-19991.94;;;18.53;88.33
7058;BME280;3570;43.080;25.628;2023-09-12T00:28:52;-19991.78;;;18.52;87.77
7058;BME280;3570;43.080;25.628;2023-09-12T00:31:36;-19991.94;;;18.53;87.61
7058;BME280;3570;43.080;25.628;2023-09-12T00:34:20;-19995.84;;;18.66;87.24
7058;BME280;3570;43.080;25.628;2023-09-12T00:37:04;-19992.66;;;18.55;87.43
7058;BME280;3570;43.080;25.628;2023-09-12T00:39:48;-19996.28;;;18.68;87.21
7058;BME280;3570;43.080;25.628;2023-09-12T00:42:32;-19993.97;;;18.60;87.20
7058;BME280;3570;43.080;25.628;2023-09-12T00:45:16;-19996.00;;;18.67;87.30
7058;BME280;3570;43.080;25.628;2023-09-12T00:48:01;-19998.91;;;18.77;87.03
7058;BME280;3570;43.080;25.628;2023-09-12T00:50:48;-19993.53;;;18.58;87.28
7058;BME280;3570;43.080;25.628;2023-09-12T00:53:33;-19988.00;;;18.39;87.58
7058;BME280;3570;43.080;25.628;2023-09-12T00:56:17;-19991.63;;;18.52;87.80
7058;BME280;3570;43.080;25.628;2023-09-12T00:59:01;-19988.59;;;18.41;88.45
7058;BME280;3570;43.080;25.628;2023-09-12T01:01:47;-19993.38;;;18.58;88.63
7058;BME280;3570;43.080;25.628;2023-09-12T01:04:32;-19986.69;;;18.35;87.92
7058;BME280;3570;43.080;25.628;2023-09-12T01:07:16;-19982.19;;;18.19;88.70
7058;BME280;3570;43.080;25.628;2023-09-12T01:10:02;-19986.25;;;18.33;89.17
7058;BME280;3570;43.080;25.628;2023-09-12T01:12:46;-19994.53;;;18.62;88.25
7058;BME280;3570;43.080;25.628;2023-09-12T01:15:30;-19996.13;;;18.67;88.22
7058;BME280;3570;43.080;25.628;2023-09-12T01:18:14;-19998.91;;;18.77;87.29
7058;BME280;3570;43.080;25.628;2023-09-12T01:27:28;-20002.09;;;18.88;86.57
7058;BME280;3570;43.080;25.628;2023-09-12T01:30:18;-20004.84;;;18.98;86.07
7058;BME280;3570;43.080;25.628;2023-09-12T01:33:02;-19997.16;;;18.71;87.48
7058;BME280;3570;43.080;25.628;2023-09-12T01:35:47;-19991.06;;;18.50;88.90
7058;BME280;3570;43.080;25.628;2023-09-12T01:38:31;-19991.94;;;18.53;88.36
7058;BME280;3570;43.080;25.628;2023-09-12T01:41:15;-19996.88;;;18.70;87.86
7058;BME280;3570;43.080;25.628;2023-09-12T01:44:01;-19993.97;;;18.60;88.29
7058;BME280;3570;43.080;25.628;2023-09-12T01:46:46;-19985.97;;;18.32;88.55
7058;BME280;3570;43.080;25.628;2023-09-12T01:49:33;-19980.31;;;18.13;90.60
7058;BME280;3570;43.080;25.628;2023-09-12T01:52:19;-19990.03;;;18.46;90.20
7058;BME280;3570;43.080;25.628;2023-09-12T01:55:04;-19982.50;;;18.20;90.38
7058;BME280;3570;43.080;25.628;2023-09-12T01:57:49;-19977.41;;;18.03;91.97
7058;BME280;3570;43.080;25.628;2023-09-12T02:00:33;-19968.13;;;17.70;91.85
7058;BME280;3570;43.080;25.628;2023-09-12T02:03:18;-19973.06;;;17.88;92.24
7058;BME280;3570;43.080;25.628;2023-09-12T02:06:01;-19974.94;;;17.94;92.43
7058;BME280;3570;43.080;25.628;2023-09-12T02:08:46;-19973.06;;;17.88;92.35
7058;BME280;3570;43.080;25.628;2023-09-12T02:11:29;-19965.94;;;17.63;93.36
7058;BME280;3570;43.080;25.628;2023-09-12T02:14:13;-19972.03;;;17.84;93.18
7058;BME280;3570;43.080;25.628;2023-09-12T02:16:57;-19976.25;;;17.99;92.64
7058;BME280;3570;43.080;25.628;2023-09-12T02:19:41;-19973.34;;;17.88;93.11
7058;BME280;3570;43.080;25.628;2023-09-12T02:22:25;-19975.09;;;17.95;92.40
7058;BME280;3570;43.080;25.628;2023-09-12T02:25:09;-19979.44;;;18.10;91.11
7058;BME280;3570;43.080;25.628;2023-09-12T02:27:53;-19977.41;;;18.03;92.57
7058;BME280;3570;43.080;25.628;2023-09-12T02:30:38;-19978.28;;;18.06;92.74
7058;BME280;3570;43.080;25.628;2023-09-12T02:33:24;-19978.44;;;18.06;92.27
7058;BME280;3570;43.080;25.628;2023-09-12T02:36:07;-19983.22;;;18.23;91.76
7058;BME280;3570;43.080;25.628;2023-09-12T02:38:52;-19982.94;;;18.22;91.56
7058;BME280;3570;43.080;25.628;2023-09-12T02:41:36;-19975.97;;;17.98;93.27
7058;BME280;3570;43.080;25.628;2023-09-12T02:44:20;-19970.44;;;17.78;94.24
7058;BME280;3570;43.080;25.628;2023-09-12T02:47:04;-19973.19;;;17.88;94.55
7058;BME280;3570;43.080;25.628;2023-09-12T02:49:48;-19978.13;;;18.05;92.69
7058;BME280;3570;43.080;25.628;2023-09-12T02:52:32;-19977.84;;;18.04;92.70
7058;BME280;3570;43.080;25.628;2023-09-12T02:55:16;-19976.69;;;18.00;93.01
7058;BME280;3570;43.080;25.628;2023-09-12T02:58:00;-19978.28;;;18.06;92.39
7058;BME280;3570;43.080;25.628;2023-09-12T03:00:44;-19978.84;;;18.08;92.02
7058;BME280;3570;43.080;25.628;2023-09-12T03:03:28;-19967.53;;;17.68;94.19
7058;BME280;3570;43.080;25.628;2023-09-12T03:06:13;-19971.88;;;17.83;93.64
7058;BME280;3570;43.080;25.628;2023-09-12T03:08:57;-19975.09;;;17.95;93.28
7058;BME280;3570;43.080;25.628;2023-09-12T03:11:41;-19970.59;;;17.79;93.78
7058;BME280;3570;43.080;25.628;2023-09-12T03:14:27;-19967.25;;;17.67;94.13
7058;BME280;3570;43.080;25.628;2023-09-12T03:17:11;-19975.38;;;17.96;92.75
7058;BME280;3570;43.080;25.628;2023-09-12T03:19:55;-19957.66;;;17.34;91.54
7058;BME280;3570;43.080;25.628;2023-09-12T03:22:39;-19954.44;;;17.23;90.86
7058;BME280;3570;43.080;25.628;2023-09-12T03:25:23;-19962.88;;;17.52;92.04
7058;BME280;3570;43.080;25.628;2023-09-12T03:28:08;-19967.25;;;17.67;90.69
7058;BME280;3570;43.080;25.628;2023-09-12T03:30:52;-19965.78;;;17.62;94.10
7058;BME280;3570;43.080;25.628;2023-09-12T03:33:36;-19970.72;;;17.79;93.26
7058;BME280;3570;43.080;25.628;2023-09-12T03:36:20;-19970.44;;;17.78;92.01
7058;BME280;3570;43.080;25.628;2023-09-12T03:39:04;-19974.22;;;17.92;92.61
7058;BME280;3570;43.080;25.628;2023-09-12T03:41:49;-19970.72;;;17.79;92.30
7058;BME280;3570;43.080;25.628;2023-09-12T03:44:33;-19973.91;;;17.91;92.27
7058;BME280;3570;43.080;25.628;2023-09-12T03:47:17;-19977.69;;;18.04;91.88
7058;BME280;3570;43.080;25.628;2023-09-12T03:50:01;-19969.84;;;17.76;92.43
7058;BME280;3570;43.080;25.628;2023-09-12T03:52:45;-19974.50;;;17.93;92.72
7058;BME280;3570;43.080;25.628;2023-09-12T03:55:30;-19971.16;;;17.81;92.96
7058;BME280;3570;43.080;25.628;2023-09-12T03:58:13;-19968.13;;;17.70;93.55
7058;BME280;3570;43.080;25.628;2023-09-12T04:00:57;-19978.00;;;18.05;91.43
7058;BME280;3570;43.080;25.628;2023-09-12T04:03:41;-19976.09;;;17.98;90.57
7058;BME280;3570;43.080;25.628;2023-09-12T04:06:25;-19980.59;;;18.14;90.40
7058;BME280;3570;43.080;25.628;2023-09-12T04:09:09;-19985.97;;;18.32;89.33
7058;BME280;3570;43.080;25.628;2023-09-12T04:11:53;-19983.38;;;18.23;88.74
7058;BME280;3570;43.080;25.628;2023-09-12T04:14:37;-19974.50;;;17.93;89.57
7058;BME280;3570;43.080;25.628;2023-09-12T04:17:21;-19981.47;;;18.17;88.97
7058;BME280;3570;43.080;25.628;2023-09-12T04:20:06;-19982.78;;;18.21;89.34
7058;BME280;3570;43.080;25.628;2023-09-12T04:22:50;-19977.13;;;18.02;89.02
7058;BME280;3570;43.080;25.628;2023-09-12T04:25:35;-19977.84;;;18.04;88.98
7058;BME280;3570;43.080;25.628;2023-09-12T04:28:19;-19981.03;;;18.15;89.03
7058;BME280;3570;43.080;25.628;2023-09-12T04:31:03;-19977.69;;;18.04;87.92
7058;BME280;3570;43.080;25.628;2023-09-12T04:33:51;-19986.69;;;18.35;87.62
7058;BME280;3570;43.080;25.628;2023-09-12T04:36:35;-19984.66;;;18.28;88.21
7058;BME280;3570;43.080;25.628;2023-09-12T04:39:19;-19977.69;;;18.04;89.72
7058;BME280;3570;43.080;25.628;2023-09-12T04:42:03;-19980.03;;;18.12;89.37
7058;BME280;3570;43.080;25.628;2023-09-12T04:44:48;-19980.31;;;18.13;88.01
7058;BME280;3570;43.080;25.628;2023-09-12T04:47:32;-19986.69;;;18.35;88.34
7058;BME280;3570;43.080;25.628;2023-09-12T04:50:16;-19984.97;;;18.29;86.97
7058;BME280;3570;43.080;25.628;2023-09-12T04:53:00;-19980.47;;;18.13;88.75
7058;BME280;3570;43.080;25.628;2023-09-12T04:55:45;-19975.97;;;17.98;89.26
7058;BME280;3570;43.080;25.628;2023-09-12T04:58:30;-19979.44;;;18.10;88.93
7058;BME280;3570;43.080;25.628;2023-09-12T05:01:14;-19965.22;;;17.60;86.47
7058;BME280;3570;43.080;25.628;2023-09-12T05:03:58;-19970.88;;;17.80;88.30
7058;BME280;3570;43.080;25.628;2023-09-12T05:06:42;-19980.59;;;18.14;86.36
7058;BME280;3570;43.080;25.628;2023-09-12T05:09:26;-19984.97;;;18.29;84.11
7058;BME280;3570;43.080;25.628;2023-09-12T05:12:09;-19997.59;;;18.72;85.39
7058;BME280;3570;43.080;25.628;2023-09-12T05:14:53;-20003.09;;;18.92;81.71
7058;BME280;3570;43.080;25.628;2023-09-12T05:17:37;-19994.84;;;18.63;81.81
7058;BME280;3570;43.080;25.628;2023-09-12T05:20:21;-19984.81;;;18.28;82.80
7058;BME280;3570;43.080;25.628;2023-09-12T05:23:05;-19974.50;;;17.93;85.71
7058;BME280;3570;43.080;25.628;2023-09-12T05:25:49;-19975.38;;;17.96;86.05
7058;BME280;3570;43.080;25.628;2023-09-12T05:28:34;-19963.47;;;17.54;86.94
7058;BME280;3570;43.080;25.628;2023-09-12T05:31:18;-19967.38;;;17.68;88.04
7058;BME280;3570;43.080;25.628;2023-09-12T05:34:02;-19975.38;;;17.96;89.59
7058;BME280;3570;43.080;25.628;2023-09-12T05:36:46;-19994.41;;;18.61;86.23
7058;BME280;3570;43.080;25.628;2023-09-12T05:39:30;-20010.50;;;19.17;83.20
7058;BME280;3570;43.080;25.628;2023-09-12T05:42:14;-20014.28;;;19.30;82.18
7058;BME280;3570;43.080;25.628;2023-09-12T05:45:04;-20018.78;;;19.46;80.90
7058;BME280;3570;43.080;25.628;2023-09-12T05:47:49;-20020.94;;;19.53;79.84
7058;BME280;3570;43.080;25.628;2023-09-12T05:50:34;-20031.53;;;19.90;79.18
7058;BME280;3570;43.080;25.628;2023-09-12T05:53:18;-20027.78;;;19.77;78.11
7058;BME280;3570;43.080;25.628;2023-09-12T05:56:02;-20035.16;;;20.03;77.68
7058;BME280;3570;43.080;25.628;2023-09-12T05:58:46;-20038.94;;;20.16;75.87
7058;BME280;3570;43.080;25.628;2023-09-12T06:01:30;-20044.72;;;20.36;75.12
7058;BME280;3570;43.080;25.628;2023-09-12T06:04:15;-20050.25;;;20.55;73.10
7058;BME280;3570;43.080;25.628;2023-09-12T06:07:01;-20056.03;;;20.75;72.48
7058;BME280;3570;43.080;25.628;2023-09-12T06:09:45;-20063.72;;;21.02;72.48
7058;BME280;3570;43.080;25.628;2023-09-12T06:12:29;-20065.88;;;21.09;72.25
7058;BME280;3570;43.080;25.628;2023-09-12T06:15:13;-20069.06;;;21.20;71.81
7058;BME280;3570;43.080;25.628;2023-09-12T06:17:57;-20076.31;;;21.45;70.43
7058;BME280;3570;43.080;25.628;2023-09-12T06:20:41;-20070.53;;;21.25;70.11
7058;BME280;3570;43.080;25.628;2023-09-12T06:23:26;-20069.06;;;21.20;69.88
7058;BME280;3570;43.080;25.628;2023-09-12T06:26:10;-20076.47;;;21.46;69.97
7058;BME280;3570;43.080;25.628;2023-09-12T06:28:54;-20081.38;;;21.63;67.57
7058;BME280;3570;43.080;25.628;2023-09-12T06:31:38;-20083.13;;;21.69;68.32
7058;BME280;3570;43.080;25.628;2023-09-12T06:34:22;-20081.81;;;21.65;68.83
7058;BME280;3570;43.080;25.628;2023-09-12T06:37:06;-20085.28;;;21.77;67.47
7058;BME280;3570;43.080;25.628;2023-09-12T06:39:50;-20082.97;;;21.69;68.46
7058;BME280;3570;43.080;25.628;2023-09-12T06:42:34;-20083.41;;;21.70;68.61
7058;BME280;3570;43.080;25.628;2023-09-12T06:45:18;-20083.13;;;21.69;67.55
7058;BME280;3570;43.080;25.628;2023-09-12T06:48:03;-20078.06;;;21.51;67.57
7058;BME280;3570;43.080;25.628;2023-09-12T06:50:47;-20079.66;;;21.57;67.32
7058;BME280;3570;43.080;25.628;2023-09-12T06:53:31;-20075.88;;;21.44;68.06
7058;BME280;3570;43.080;25.628;2023-09-12T06:56:15;-20078.63;;;21.53;70.03
7058;BME280;3570;43.080;25.628;2023-09-12T06:58:59;-20083.41;;;21.70;69.03
7058;BME280;3570;43.080;25.628;2023-09-12T07:01:42;-20094.56;;;22.09;67.55
7058;BME280;3570;43.080;25.628;2023-09-12T07:04:27;-20102.50;;;22.36;67.30
7058;BME280;3570;43.080;25.628;2023-09-12T07:07:11;-20111.34;;;22.67;66.31
7058;BME280;3570;43.080;25.628;2023-09-12T07:09:55;-20123.19;;;23.08;64.01
7058;BME280;3570;43.080;25.628;2023-09-12T07:12:38;-20126.81;;;23.21;63.21
7058;BME280;3570;43.080;25.628;2023-09-12T07:15:22;-20132.31;;;23.40;62.09
7058;BME280;3570;43.080;25.628;2023-09-12T07:18:06;-20124.34;;;23.12;63.24
7058;BME280;3570;43.080;25.628;2023-09-12T07:20:58;-20121.16;;;23.01;62.69
7058;BME280;3570;43.080;25.628;2023-09-12T07:23:42;-20127.38;;;23.23;63.42
7058;BME280;3570;43.080;25.628;2023-09-12T07:26:26;-20137.38;;;23.58;61.71
7058;BME280;3570;43.080;25.628;2023-09-12T07:29:10;-20146.59;;;23.90;61.58
7058;BME280;3570;43.080;25.628;2023-09-12T07:31:54;-20141.41;;;23.72;63.08
7058;BME280;3570;43.080;25.628;2023-09-12T07:34:38;-20135.47;;;23.51;63.12
7058;BME280;3570;43.080;25.628;2023-09-12T07:37:23;-20132.88;;;23.42;63.98
7058;BME280;3570;43.080;25.628;2023-09-12T07:40:07;-20141.69;;;23.73;63.56
7058;BME280;3570;43.080;25.628;2023-09-12T07:42:55;-20137.94;;;23.60;64.62
7058;BME280;3570;43.080;25.628;2023-09-12T07:45:39;-20158.75;;;24.32;62.09
7058;BME280;3570;43.080;25.628;2023-09-12T07:48:24;-20161.63;;;24.42;59.70
7058;BME280;3570;43.080;25.628;2023-09-12T07:51:13;-20164.22;;;24.51;58.73
7058;BME280;3570;43.080;25.628;2023-09-12T07:53:58;-20178.81;;;25.02;58.90
7058;BME280;3570;43.080;25.628;2023-09-12T07:56:42;-20186.16;;;25.28;56.30
7058;BME280;3570;43.080;25.628;2023-09-12T07:59:26;-20196.13;;;25.62;55.24
7058;BME280;3570;43.080;25.628;2023-09-12T08:02:10;-20202.03;;;25.83;55.60
7058;BME280;3570;43.080;25.628;2023-09-12T08:04:56;-20206.94;;;26.00;52.64
7058;BME280;3570;43.080;25.628;2023-09-12T08:07:40;-20209.38;;;26.08;50.43
7058;BME280;3570;43.080;25.628;2023-09-12T08:10:24;-20218.19;;;26.39;49.25
7058;BME280;3570;43.080;25.628;2023-09-12T08:13:09;-20224.09;;;26.60;46.03
7058;BME280;3570;43.080;25.628;2023-09-12T08:15:53;-20230.00;;;26.80;45.08
7058;BME280;3570;43.080;25.628;2023-09-12T08:18:37;-20243.97;;;27.29;43.73
7058;BME280;3570;43.080;25.628;2023-09-12T08:21:21;-20245.41;;;27.34;44.10
7058;BME280;3570;43.080;25.628;2023-09-12T08:24:05;-20253.19;;;27.61;42.65
7058;BME280;3570;43.080;25.628;2023-09-12T08:26:50;-20263.25;;;27.97;42.75
7058;BME280;3570;43.080;25.628;2023-09-12T08:29:34;-20266.84;;;28.09;41.84
7058;BME280;3570;43.080;25.628;2023-09-12T08:32:18;-20268.00;;;28.13;40.59
7058;BME280;3570;43.080;25.628;2023-09-12T08:35:02;-20263.97;;;27.99;39.78
7058;BME280;3570;43.080;25.628;2023-09-12T08:37:47;-20269.72;;;28.19;41.11
7058;BME280;3570;43.080;25.628;2023-09-12T08:40:33;-20266.00;;;28.06;38.93
7058;BME280;3570;43.080;25.628;2023-09-12T08:43:20;-20278.34;;;28.49;38.22
7058;BME280;3570;43.080;25.628;2023-09-12T08:46:04;-20284.13;;;28.69;36.09
7058;BME280;3570;43.080;25.628;2023-09-12T08:48:50;-20276.50;;;28.43;36.74
7058;BME280;3570;43.080;25.628;2023-09-12T08:51:35;-20283.09;;;28.66;37.29
7058;BME280;3570;43.080;25.628;2023-09-12T08:54:19;-20299.66;;;29.24;36.58
7058;BME280;3570;43.080;25.628;2023-09-12T08:57:05;-20317.88;;;29.88;34.33
7058;BME280;3570;43.080;25.628;2023-09-12T08:59:50;-20348.75;;;30.96;32.00
7058;BME280;3570;43.080;25.628;2023-09-12T09:02:36;-20351.03;;;31.04;32.94
7058;BME280;3570;43.080;25.628;2023-09-12T09:05:22;-20359.66;;;31.34;33.32
7058;BME280;3570;43.080;25.628;2023-09-12T09:08:07;-20380.28;;;32.06;32.24
7058;BME280;3570;43.080;25.628;2023-09-12T09:10:58;-20409.34;;;33.08;31.24
7058;BME280;3570;43.080;25.628;2023-09-12T09:13:42;-20397.31;;;32.66;31.90
7058;BME280;3570;43.080;25.628;2023-09-12T09:16:27;-20387.72;;;32.32;31.82
7058;BME280;3570;43.080;25.628;2023-09-12T09:19:11;-20398.03;;;32.69;31.06
7058;BME280;3570;43.080;25.628;2023-09-12T09:22:04;-20412.06;;;33.18;30.21
7058;BME280;3570;43.080;25.628;2023-09-12T09:24:48;-20404.91;;;32.93;31.11
7058;BME280;3570;43.080;25.628;2023-09-12T09:27:35;-20409.34;;;33.08;31.92
7058;BME280;3570;43.080;25.628;2023-09-12T09:30:43;-20395.31;;;32.59;31.89
7058;BME280;3570;43.080;25.628;2023-09-12T09:33:35;-20414.22;;;33.25;31.40
7058;BME280;3570;43.080;25.628;2023-09-12T09:36:20;-20448.81;;;34.47;29.69
7058;BME280;3570;43.080;25.628;2023-09-12T09:39:04;-20480.09;;;35.57;28.37
7058;BME280;3570;43.080;25.628;2023-09-12T09:41:50;-20492.66;;;36.02;26.81
7058;BME280;3570;43.080;25.628;2023-09-12T09:44:34;-20502.63;;;36.37;27.62
7058;BME280;3570;43.080;25.628;2023-09-12T09:47:19;-20484.38;;;35.72;26.93
7058;BME280;3570;43.080;25.628;2023-09-12T09:50:03;-20501.34;;;36.32;26.33
7058;BME280;3570;43.080;25.628;2023-09-12T09:52:54;-20498.78;;;36.23;26.48
7058;BME280;3570;43.080;25.628;2023-09-12T09:55:39;-20448.69;;;34.47;28.07
7058;BME280;3570;43.080;25.628;2023-09-12T09:58:24;-20466.09;;;35.08;27.98
7058;BME280;3570;43.080;25.628;2023-09-12T10:01:09;-20467.25;;;35.12;27.95
7058;BME280;3570;43.080;25.628;2023-09-12T10:03:58;-20456.69;;;34.75;28.08
7058;BME280;3570;43.080;25.628;2023-09-12T10:06:45;-20417.94;;;33.39;29.28
7058;BME280;3570;43.080;25.628;2023-09-12T10:09:30;-20456.81;;;34.75;28.56
7058;BME280;3570;43.080;25.628;2023-09-12T10:12:15;-20481.81;;;35.63;27.48
7058;BME280;3570;43.080;25.628;2023-09-12T10:15:00;-20493.50;;;36.05;26.33
7058;BME280;3570;43.080;25.628;2023-09-12T10:17:47;-20510.03;;;36.63;26.93
7058;BME280;3570;43.080;25.628;2023-09-12T10:20:38;-20494.66;;;36.09;25.97
7058;BME280;3570;43.080;25.628;2023-09-12T10:23:32;-20496.50;;;36.15;25.42
7058;BME280;3570;43.080;25.628;2023-09-12T10:26:21;-20500.34;;;36.29;25.87
7058;BME280;3570;43.080;25.628;2023-09-12T10:29:06;-20510.63;;;36.65;25.65
7058;BME280;3570;43.080;25.628;2023-09-12T10:31:50;-20525.72;;;37.18;25.05
7058;BME280;3570;43.080;25.628;2023-09-12T10:34:34;-20507.47;;;36.54;25.02
7058;BME280;3570;43.080;25.628;2023-09-12T10:37:22;-20524.88;;;37.15;24.68
7058;BME280;3570;43.080;25.628;2023-09-12T10:40:08;-20552.75;;;38.14;23.92
7058;BME280;3570;43.080;25.628;2023-09-12T10:42:53;-20563.84;;;38.53;24.27
7058;BME280;3570;43.080;25.628;2023-09-12T10:45:39;-20539.09;;;37.65;23.91
7058;BME280;3570;43.080;25.628;2023-09-12T10:48:24;-20519.03;;;36.95;25.22
7058;BME280;3570;43.080;25.628;2023-09-12T10:51:10;-20523.84;;;37.12;24.99
7058;BME280;3570;43.080;25.628;2023-09-12T10:53:54;-20548.63;;;37.99;24.08
7058;BME280;3570;43.080;25.628;2023-09-12T10:56:38;-20585.19;;;39.28;23.23
7058;BME280;3570;43.080;25.628;2023-09-12T10:59:23;-20571.81;;;38.81;23.76
7058;BME280;3570;43.080;25.628;2023-09-12T11:02:29;-20559.16;;;38.36;24.32
7058;BME280;3570;43.080;25.628;2023-09-12T11:08:15;-20561.31;;;38.44;24.00
7058;BME280;3570;43.080;25.628;2023-09-12T11:11:19;-20566.00;;;38.60;23.41
7058;BME280;3570;43.080;25.628;2023-09-12T11:14:07;-20571.69;;;38.81;23.40
7058;BME280;3570;43.080;25.628;2023-09-12T11:19:52;-20652.41;;;41.67;21.59
7058;BME280;3570;43.080;25.628;2023-09-12T11:22:41;-20634.69;;;41.04;21.79
7058;BME280;3570;43.080;25.628;2023-09-12T11:25:26;-20623.94;;;40.66;22.43
7058;BME280;3570;43.080;25.628;2023-09-12T11:28:10;-20607.91;;;40.09;23.05
7058;BME280;3570;43.080;25.628;2023-09-12T11:30:56;-20611.88;;;40.23;22.72
7058;BME280;3570;43.080;25.628;2023-09-12T11:33:43;-20545.66;;;37.89;24.52
7058;BME280;3570;43.080;25.628;2023-09-12T11:36:27;-20529.84;;;37.33;25.58
7058;BME280;3570;43.080;25.628;2023-09-12T11:39:23;-20564.13;;;38.54;23.91
7058;BME280;3570;43.080;25.628;2023-09-12T11:42:11;-20611.03;;;40.20;22.85
7058;BME280;3570;43.080;25.628;2023-09-12T11:44:57;-20631.31;;;40.92;21.94
7058;BME280;3570;43.080;25.628;2023-09-12T11:47:43;-20632.00;;;40.94;21.88
7058;BME280;3570;43.080;25.628;2023-09-12T11:50:35;-20642.78;;;41.33;21.89
7058;BME280;3570;43.080;25.628;2023-09-12T11:53:25;-20632.28;;;40.95;21.46
7058;BME280;3570;43.080;25.628;2023-09-12T11:56:10;-20670.81;;;42.32;20.80
7058;BME280;3570;43.080;25.628;2023-09-12T11:58:54;-20654.41;;;41.74;21.03
7058;BME280;3570;43.080;25.628;2023-09-12T12:01:39;-20684.13;;;42.79;19.71
7058;BME280;3570;43.080;25.628;2023-09-12T12:04:24;-20672.81;;;42.39;20.22
7058;BME280;3570;43.080;25.628;2023-09-12T12:07:12;-20647.44;;;41.49;22.03
7058;BME280;3570;43.080;25.628;2023-09-12T12:09:56;-20652.41;;;41.67;21.35
7058;BME280;3570;43.080;25.628;2023-09-12T12:12:43;-20654.69;;;41.75;20.90
7058;BME280;3570;43.080;25.628;2023-09-12T12:15:28;-20660.19;;;41.94;21.14
7058;BME280;3570;43.080;25.628;2023-09-12T12:18:12;-20649.00;;;41.55;21.54
7058;BME280;3570;43.080;25.628;2023-09-12T12:20:56;-20643.78;;;41.36;21.39
7058;BME280;3570;43.080;25.628;2023-09-12T12:23:40;-20662.91;;;42.04;21.31
7058;BME280;3570;43.080;25.628;2023-09-12T12:26:24;-20666.44;;;42.17;20.96
7058;BME280;3570;43.080;25.628;2023-09-12T12:29:10;-20665.00;;;42.11;21.02
7058;BME280;3570;43.080;25.628;2023-09-12T12:32:02;-20668.28;;;42.23;20.79
7058;BME280;3570;43.080;25.628;2023-09-12T12:34:49;-20661.91;;;42.00;20.80
7058;BME280;3570;43.080;25.628;2023-09-12T12:37:33;-20681.28;;;42.69;20.28
7058;BME280;3570;43.080;25.628;2023-09-12T12:40:18;-20628.47;;;40.82;21.28
7058;BME280;3570;43.080;25.628;2023-09-12T12:43:02;-20652.84;;;41.68;20.62
7058;BME280;3570;43.080;25.628;2023-09-12T12:45:53;-20661.34;;;41.98;20.50
7058;BME280;3570;43.080;25.628;2023-09-12T12:48:41;-20650.72;;;41.61;21.41
7058;BME280;3570;43.080;25.628;2023-09-12T12:51:27;-20679.59;;;42.63;20.50
7058;BME280;3570;43.080;25.628;2023-09-12T12:54:14;-20660.19;;;41.94;20.36
7058;BME280;3570;43.080;25.628;2023-09-12T12:56:58;-20718.19;;;44.01;18.72
7058;BME280;3570;43.080;25.628;2023-09-12T12:59:45;-20711.81;;;43.78;18.47
7058;BME280;3570;43.080;25.628;2023-09-12T13:02:29;-20705.31;;;43.55;18.92
7058;BME280;3570;43.080;25.628;2023-09-12T13:05:20;-20747.94;;;45.07;17.93
7058;BME280;3570;43.080;25.628;2023-09-12T13:08:04;-20718.75;;;44.03;18.28
7058;BME280;3570;43.080;25.628;2023-09-12T13:10:49;-20714.63;;;43.88;18.47
7058;BME280;3570;43.080;25.628;2023-09-12T13:13:33;-20746.38;;;45.01;17.52
7058;BME280;3570;43.080;25.628;2023-09-12T13:16:17;-20690.06;;;43.00;19.11
7058;BME280;3570;43.080;25.628;2023-09-12T13:19:01;-20642.22;;;41.31;20.02
7058;BME280;3570;43.080;25.628;2023-09-12T13:21:45;-20652.41;;;41.67;20.17
7058;BME280;3570;43.080;25.628;2023-09-12T13:24:28;-20623.66;;;40.65;21.60
7058;BME280;3570;43.080;25.628;2023-09-12T13:27:12;-20595.13;;;39.64;22.44
7058;BME280;3570;43.080;25.628;2023-09-12T13:29:58;-20594.56;;;39.62;22.12
7058;BME280;3570;43.080;25.628;2023-09-12T13:32:42;-20627.75;;;40.79;21.50
7058;BME280;3570;43.080;25.628;2023-09-12T13:35:26;-20615.84;;;40.37;21.36
7058;BME280;3570;43.080;25.628;2023-09-12T13:38:10;-20644.19;;;41.38;20.62
7058;BME280;3570;43.080;25.628;2023-09-12T13:40:54;-20666.56;;;42.17;19.62
7058;BME280;3570;43.080;25.628;2023-09-12T13:43:38;-20700.38;;;43.37;19.45
7058;BME280;3570;43.080;25.628;2023-09-12T13:46:22;-20692.03;;;43.08;19.45
7058;BME280;3570;43.080;25.628;2023-09-12T13:49:06;-20686.94;;;42.89;19.05
7058;BME280;3570;43.080;25.628;2023-09-12T13:51:50;-20670.97;;;42.33;19.21
7058;BME280;3570;43.080;25.628;2023-09-12T13:54:33;-20649.00;;;41.55;20.00
7058;BME280;3570;43.080;25.628;2023-09-12T13:57:18;-20654.97;;;41.76;19.79
7058;BME280;3570;43.080;25.628;2023-09-12T14:00:02;-20680.16;;;42.65;19.58
7058;BME280;3570;43.080;25.628;2023-09-12T14:02:46;-20702.78;;;43.46;18.28
7058;BME280;3570;43.080;25.628;2023-09-12T14:05:30;-20718.75;;;44.03;18.31
7058;BME280;3570;43.080;25.628;2023-09-12T14:08:14;-20745.13;;;44.97;17.86
7058;BME280;3570;43.080;25.628;2023-09-12T14:10:58;-20782.59;;;46.30;16.91
7058;BME280;3570;43.080;25.628;2023-09-12T14:13:42;-20772.47;;;45.94;17.52
7058;BME280;3570;43.080;25.628;2023-09-12T14:16:26;-20779.22;;;46.18;16.84
7058;BME280;3570;43.080;25.628;2023-09-12T14:19:10;-20785.00;;;46.39;16.47
7058;BME280;3570;43.080;25.628;2023-09-12T14:21:54;-20792.72;;;46.67;16.29
7058;BME280;3570;43.080;25.628;2023-09-12T14:24:38;-20816.50;;;47.52;15.76
7058;BME280;3570;43.080;25.628;2023-09-12T14:27:22;-20761.34;;;45.54;16.78
7058;BME280;3570;43.080;25.628;2023-09-12T14:30:07;-20779.22;;;46.18;16.04
7058;BME280;3570;43.080;25.628;2023-09-12T14:32:51;-20813.69;;;47.42;15.48
7058;BME280;3570;43.080;25.628;2023-09-12T14:35:35;-20802.88;;;47.03;15.44
7058;BME280;3570;43.080;25.628;2023-09-12T14:38:20;-20798.22;;;46.86;15.91
7058;BME280;3570;43.080;25.628;2023-09-12T14:41:04;-20794.00;;;46.71;16.32
7058;BME280;3570;43.080;25.628;2023-09-12T14:43:48;-20802.00;;;47.00;15.44
7058;BME280;3570;43.080;25.628;2023-09-12T14:46:32;-20789.34;;;46.55;16.33